sensor_id;sensor_type;location;lat;lon;timestamp;P1;durP1;ratioP1;P2;durP2;ratioP2
7475;SDS011;3779;49.216;8.650;2024-03-22T00:01:58;4.93;;;3.80;;
7475;SDS011;3779;49.216;8.650;2024-03-22T00:04:44;4.53;;;3.70;;
7475;SDS011;3779;49.216;8.650;2024-03-22T00:07:30;4.90;;;3.78;;
7475;SDS011;3779;49.216;8.650;2024-03-22T00:10:16;4.67;;;3.80;;
7475;SDS011;3779;49.216;8.650;2024-03-22T00:13:01;4.73;;;4.10;;
7475;SDS011;3779;49.216;8.650;2024-03-22T00:15:47;4.73;;;3.97;;
7475;SDS011;3779;49.216;8.650;2024-03-22T00:18:33;3.83;;;2.97;;
7475;SDS011;3779;49.216;8.650;2024-03-22T00:21:19;5.73;;;4.23;;
7475;SDS011;3779;49.216;8.650;2024-03-22T00:24:06;5.27;;;4.00;;
7475;SDS011;3779;49.216;8.650;2024-03-22T00:26:52;5.00;;;4.50;;
7475;SDS011;3779;49.216;8.650;2024-03-22T00:29:38;5.00;;;3.60;;
7475;SDS011;3779;49.216;8.650;2024-03-22T00:32:24;4.97;;;4.37;;
7475;SDS011;3779;49.216;8.650;2024-03-22T00:35:10;5.40;;;4.07;;
7475;SDS011;3779;49.216;8.650;2024-03-22T00:40:56;5.13;;;4.60;;
7475;SDS011;3779;49.216;8.650;2024-03-22T00:43:42;4.70;;;4.20;;
7475;SDS011;3779;49.216;8.650;2024-03-22T00:46:28;4.17;;;3.77;;
7475;SDS011;3779;49.216;8.650;2024-03-22T00:49:14;4.00;;;3.57;;
7475;SDS011;3779;49.216;8.650;2024-03-22T00:51:59;4.50;;;4.10;;
7475;SDS011;3779;49.216;8.650;2024-03-22T00:54:45;4.37;;;3.97;;
7475;SDS011;3779;49.216;8.650;2024-03-22T00:57:31;7.67;;;4.07;;
7475;SDS011;3779;49.216;8.650;2024-03-22T01:00:17;5.63;;;4.33;;
7475;SDS011;3779;49.216;8.650;2024-03-22T01:03:02;5.00;;;4.43;;
7475;SDS011;3779;49.216;8.650;2024-03-22T01:05:48;4.27;;;3.87;;
7475;SDS011;3779;49.216;8.650;2024-03-22T01:08:34;4.80;;;3.92;;
7475;SDS011;3779;49.216;8.650;2024-03-22T01:11:20;4.73;;;3.73;;
7475;SDS011;3779;49.216;8.650;2024-03-22T01:14:06;5.90;;;4.00;;
7475;SDS011;3779;49.216;8.650;2024-03-22T01:16:51;5.33;;;3.83;;
7475;SDS011;3779;49.216;8.650;2024-03-22T01:19:37;5.28;;;4.10;;
7475;SDS011;3779;49.216;8.650;2024-03-22T01:22:23;3.87;;;3.43;;
7475;SDS011;3779;49.216;8.650;2024-03-22T01:25:08;5.37;;;4.13;;
7475;SDS011;3779;49.216;8.650;2024-03-22T01:27:55;4.43;;;4.03;;
7475;SDS011;3779;49.216;8.650;2024-03-22T01:30:42;4.70;;;4.20;;
7475;SDS011;3779;49.216;8.650;2024-03-22T01:33:28;3.87;;;3.53;;
7475;SDS011;3779;49.216;8.650;2024-03-22T01:36:14;5.80;;;4.77;;
7475;SDS011;3779;49.216;8.650;2024-03-22T01:38:59;4.80;;;4.17;;
7475;SDS011;3779;49.216;8.650;2024-03-22T01:41:45;6.80;;;4.43;;
7475;SDS011;3779;49.216;8.650;2024-03-22T01:44:31;6.20;;;4.70;;
7475;SDS011;3779;49.216;8.650;2024-03-22T01:47:17;6.57;;;4.83;;
7475;SDS011;3779;49.216;8.650;2024-03-22T01:50:03;5.93;;;4.07;;
7475;SDS011;3779;49.216;8.650;2024-03-22T01:52:51;4.27;;;3.87;;
7475;SDS011;3779;49.216;8.650;2024-03-22T01:55:37;4.13;;;3.20;;
7475;SDS011;3779;49.216;8.650;2024-03-22T01:58:23;3.87;;;3.47;;
7475;SDS011;3779;49.216;8.650;2024-03-22T02:01:09;4.73;;;4.20;;
7475;SDS011;3779;49.216;8.650;2024-03-22T02:03:55;3.80;;;3.40;;
7475;SDS011;3779;49.216;8.650;2024-03-22T02:06:41;4.73;;;4.27;;
7475;SDS011;3779;49.216;8.650;2024-03-22T02:09:27;5.03;;;3.70;;
7475;SDS011;3779;49.216;8.650;2024-03-22T02:12:13;5.20;;;4.28;;
7475;SDS011;3779;49.216;8.650;2024-03-22T02:14:59;6.20;;;4.50;;
7475;SDS011;3779;49.216;8.650;2024-03-22T02:17:45;4.50;;;4.10;;
7475;SDS011;3779;49.216;8.650;2024-03-22T02:20:30;4.67;;;4.10;;
7475;SDS011;3779;49.216;8.650;2024-03-22T02:23:16;6.43;;;4.10;;
7475;SDS011;3779;49.216;8.650;2024-03-22T02:31:38;3.57;;;3.27;;
7475;SDS011;3779;49.216;8.650;2024-03-22T02:34:24;4.07;;;3.67;;
7475;SDS011;3779;49.216;8.650;2024-03-22T02:37:10;5.37;;;4.33;;
7475;SDS011;3779;49.216;8.650;2024-03-22T02:39:55;4.40;;;4.00;;
7475;SDS011;3779;49.216;8.650;2024-03-22T02:42:41;4.97;;;3.77;;
7475;SDS011;3779;49.216;8.650;2024-03-22T02:45:27;6.80;;;4.50;;
7475;SDS011;3779;49.216;8.650;2024-03-22T02:48:13;5.23;;;3.20;;
7475;SDS011;3779;49.216;8.650;2024-03-22T02:50:59;4.03;;;3.63;;
7475;SDS011;3779;49.216;8.650;2024-03-22T02:53:44;3.70;;;3.40;;
7475;SDS011;3779;49.216;8.650;2024-03-22T02:56:30;6.70;;;4.43;;
7475;SDS011;3779;49.216;8.650;2024-03-22T02:59:16;6.30;;;4.07;;
7475;SDS011;3779;49.216;8.650;2024-03-22T03:02:02;5.13;;;4.63;;
7475;SDS011;3779;49.216;8.650;2024-03-22T03:04:48;4.67;;;3.83;;
7475;SDS011;3779;49.216;8.650;2024-03-22T03:07:34;5.10;;;4.40;;
7475;SDS011;3779;49.216;8.650;2024-03-22T03:10:19;4.73;;;4.33;;
7475;SDS011;3779;49.216;8.650;2024-03-22T03:13:05;5.25;;;4.75;;
7475;SDS011;3779;49.216;8.650;2024-03-22T03:18:50;5.50;;;4.90;;
7475;SDS011;3779;49.216;8.650;2024-03-22T03:21:36;5.73;;;5.00;;
7475;SDS011;3779;49.216;8.650;2024-03-22T03:24:22;3.63;;;3.33;;
7475;SDS011;3779;49.216;8.650;2024-03-22T03:27:07;5.90;;;4.60;;
7475;SDS011;3779;49.216;8.650;2024-03-22T03:29:53;3.90;;;3.30;;
7475;SDS011;3779;49.216;8.650;2024-03-22T03:32:39;5.97;;;4.60;;
7475;SDS011;3779;49.216;8.650;2024-03-22T03:35:24;4.53;;;4.13;;
7475;SDS011;3779;49.216;8.650;2024-03-22T03:38:11;4.33;;;3.93;;
7475;SDS011;3779;49.216;8.650;2024-03-22T03:40:57;4.90;;;3.90;;
7475;SDS011;3779;49.216;8.650;2024-03-22T03:43:42;4.80;;;4.30;;
7475;SDS011;3779;49.216;8.650;2024-03-22T03:46:28;4.93;;;4.27;;
7475;SDS011;3779;49.216;8.650;2024-03-22T03:49:14;6.30;;;4.20;;
7475;SDS011;3779;49.216;8.650;2024-03-22T03:51:59;5.50;;;4.20;;
7475;SDS011;3779;49.216;8.650;2024-03-22T03:54:45;4.27;;;3.87;;
7475;SDS011;3779;49.216;8.650;2024-03-22T03:57:31;4.53;;;3.97;;
7475;SDS011;3779;49.216;8.650;2024-03-22T04:00:18;5.83;;;3.83;;
7475;SDS011;3779;49.216;8.650;2024-03-22T04:03:04;4.53;;;4.13;;
7475;SDS011;3779;49.216;8.650;2024-03-22T04:05:57;4.93;;;4.43;;
7475;SDS011;3779;49.216;8.650;2024-03-22T04:08:43;5.30;;;4.20;;
7475;SDS011;3779;49.216;8.650;2024-03-22T04:11:29;4.43;;;4.00;;
7475;SDS011;3779;49.216;8.650;2024-03-22T04:14:14;4.40;;;4.00;;
7475;SDS011;3779;49.216;8.650;2024-03-22T04:17:00;4.10;;;3.70;;
7475;SDS011;3779;49.216;8.650;2024-03-22T04:19:46;4.57;;;3.93;;
7475;SDS011;3779;49.216;8.650;2024-03-22T04:22:35;5.33;;;3.73;;
7475;SDS011;3779;49.216;8.650;2024-03-22T04:25:20;5.03;;;3.87;;
7475;SDS011;3779;49.216;8.650;2024-03-22T04:28:06;4.03;;;3.63;;
7475;SDS011;3779;49.216;8.650;2024-03-22T04:33:45;4.27;;;3.90;;
7475;SDS011;3779;49.216;8.650;2024-03-22T04:36:31;4.20;;;3.80;;
7475;SDS011;3779;49.216;8.650;2024-03-22T04:39:17;4.70;;;4.00;;
7475;SDS011;3779;49.216;8.650;2024-03-22T04:42:04;4.33;;;3.30;;
7475;SDS011;3779;49.216;8.650;2024-03-22T04:44:49;5.40;;;4.17;;
7475;SDS011;3779;49.216;8.650;2024-03-22T04:47:35;5.37;;;3.47;;
7475;SDS011;3779;49.216;8.650;2024-03-22T04:50:22;3.83;;;3.53;;
7475;SDS011;3779;49.216;8.650;2024-03-22T04:53:08;2.60;;;2.40;;
7475;SDS011;3779;49.216;8.650;2024-03-22T04:55:54;2.73;;;2.47;;
7475;SDS011;3779;49.216;8.650;2024-03-22T04:58:40;4.73;;;4.00;;
7475;SDS011;3779;49.216;8.650;2024-03-22T05:01:25;2.73;;;2.50;;
7475;SDS011;3779;49.216;8.650;2024-03-22T05:04:11;3.37;;;3.07;;
7475;SDS011;3779;49.216;8.650;2024-03-22T05:06:57;3.43;;;3.13;;
7475;SDS011;3779;49.216;8.650;2024-03-22T05:09:43;2.10;;;1.80;;
7475;SDS011;3779;49.216;8.650;2024-03-22T05:12:28;3.43;;;3.13;;
7475;SDS011;3779;49.216;8.650;2024-03-22T05:15:14;4.23;;;3.83;;
7475;SDS011;3779;49.216;8.650;2024-03-22T05:18:00;3.60;;;3.30;;
7475;SDS011;3779;49.216;8.650;2024-03-22T05:20:46;4.13;;;3.53;;
7475;SDS011;3779;49.216;8.650;2024-03-22T05:23:31;3.57;;;3.20;;
7475;SDS011;3779;49.216;8.650;2024-03-22T05:26:17;4.40;;;3.90;;
7475;SDS011;3779;49.216;8.650;2024-03-22T05:29:05;3.63;;;3.33;;
7475;SDS011;3779;49.216;8.650;2024-03-22T05:31:51;4.13;;;3.57;;
7475;SDS011;3779;49.216;8.650;2024-03-22T05:34:37;2.97;;;2.57;;
7475;SDS011;3779;49.216;8.650;2024-03-22T05:37:23;3.83;;;2.60;;
7475;SDS011;3779;49.216;8.650;2024-03-22T05:40:09;3.70;;;3.30;;
7475;SDS011;3779;49.216;8.650;2024-03-22T05:42:55;3.37;;;3.07;;
7475;SDS011;3779;49.216;8.650;2024-03-22T05:45:41;4.80;;;3.63;;
7475;SDS011;3779;49.216;8.650;2024-03-22T05:48:27;3.47;;;3.17;;
7475;SDS011;3779;49.216;8.650;2024-03-22T05:51:13;3.80;;;3.23;;
7475;SDS011;3779;49.216;8.650;2024-03-22T05:53:59;4.57;;;4.00;;
7475;SDS011;3779;49.216;8.650;2024-03-22T05:56:45;2.87;;;2.60;;
7475;SDS011;3779;49.216;8.650;2024-03-22T05:59:31;5.77;;;4.23;;
7475;SDS011;3779;49.216;8.650;2024-03-22T06:02:17;3.97;;;3.43;;
7475;SDS011;3779;49.216;8.650;2024-03-22T06:05:03;4.03;;;3.63;;
7475;SDS011;3779;49.216;8.650;2024-03-22T06:10:37;2.87;;;2.63;;
7475;SDS011;3779;49.216;8.650;2024-03-22T06:31:24;3.77;;;3.47;;
7475;SDS011;3779;49.216;8.650;2024-03-22T06:34:10;7.73;;;4.57;;
7475;SDS011;3779;49.216;8.650;2024-03-22T06:36:56;5.47;;;5.00;;
7475;SDS011;3779;49.216;8.650;2024-03-22T06:39:41;4.93;;;4.43;;
7475;SDS011;3779;49.216;8.650;2024-03-22T06:42:27;6.27;;;5.40;;
7475;SDS011;3779;49.216;8.650;2024-03-22T06:45:13;4.17;;;3.60;;
7475;SDS011;3779;49.216;8.650;2024-03-22T06:47:59;2.70;;;2.50;;
7475;SDS011;3779;49.216;8.650;2024-03-22T06:50:44;6.03;;;5.43;;
7475;SDS011;3779;49.216;8.650;2024-03-22T06:53:30;5.97;;;4.57;;
7475;SDS011;3779;49.216;8.650;2024-03-22T06:56:16;7.17;;;5.80;;
7475;SDS011;3779;49.216;8.650;2024-03-22T06:59:02;6.20;;;5.67;;
7475;SDS011;3779;49.216;8.650;2024-03-22T07:01:47;7.63;;;6.18;;
7475;SDS011;3779;49.216;8.650;2024-03-22T07:04:34;6.70;;;5.80;;
7475;SDS011;3779;49.216;8.650;2024-03-22T07:07:19;6.60;;;4.90;;
7475;SDS011;3779;49.216;8.650;2024-03-22T07:10:05;6.83;;;5.70;;
7475;SDS011;3779;49.216;8.650;2024-03-22T07:12:51;7.73;;;6.20;;
7475;SDS011;3779;49.216;8.650;2024-03-22T07:15:37;8.47;;;5.50;;
7475;SDS011;3779;49.216;8.650;2024-03-22T07:18:23;12.37;;;8.53;;
7475;SDS011;3779;49.216;8.650;2024-03-22T07:21:08;15.13;;;8.77;;
7475;SDS011;3779;49.216;8.650;2024-03-22T07:23:54;12.03;;;8.33;;
7475;SDS011;3779;49.216;8.650;2024-03-22T07:26:40;8.02;;;6.00;;
7475;SDS011;3779;49.216;8.650;2024-03-22T07:29:26;7.77;;;5.63;;
7475;SDS011;3779;49.216;8.650;2024-03-22T07:32:11;5.07;;;4.57;;
7475;SDS011;3779;49.216;8.650;2024-03-22T07:34:57;6.97;;;5.77;;
7475;SDS011;3779;49.216;8.650;2024-03-22T07:37:43;9.40;;;6.40;;
7475;SDS011;3779;49.216;8.650;2024-03-22T07:43:49;6.80;;;6.10;;
7475;SDS011;3779;49.216;8.650;2024-03-22T07:46:35;6.50;;;5.90;;
7475;SDS011;3779;49.216;8.650;2024-03-22T07:49:21;8.97;;;5.90;;
7475;SDS011;3779;49.216;8.650;2024-03-22T07:52:06;6.13;;;5.47;;
7475;SDS011;3779;49.216;8.650;2024-03-22T07:54:52;5.73;;;5.10;;
7475;SDS011;3779;49.216;8.650;2024-03-22T07:57:38;7.43;;;5.30;;
7475;SDS011;3779;49.216;8.650;2024-03-22T08:00:24;6.07;;;4.97;;
7475;SDS011;3779;49.216;8.650;2024-03-22T08:03:16;5.83;;;5.20;;
7475;SDS011;3779;49.216;8.650;2024-03-22T08:06:01;6.67;;;5.53;;
7475;SDS011;3779;49.216;8.650;2024-03-22T08:08:47;7.97;;;5.80;;
7475;SDS011;3779;49.216;8.650;2024-03-22T08:11:34;8.67;;;6.20;;
7475;SDS011;3779;49.216;8.650;2024-03-22T08:14:20;7.07;;;5.60;;
7475;SDS011;3779;49.216;8.650;2024-03-22T08:17:06;7.43;;;6.40;;
7475;SDS011;3779;49.216;8.650;2024-03-22T08:19:54;7.37;;;5.93;;
7475;SDS011;3779;49.216;8.650;2024-03-22T08:22:40;6.63;;;5.67;;
7475;SDS011;3779;49.216;8.650;2024-03-22T08:25:25;7.03;;;5.87;;
7475;SDS011;3779;49.216;8.650;2024-03-22T08:28:11;6.17;;;5.30;;
7475;SDS011;3779;49.216;8.650;2024-03-22T08:30:58;6.93;;;5.53;;
7475;SDS011;3779;49.216;8.650;2024-03-22T08:33:49;5.97;;;5.27;;
7475;SDS011;3779;49.216;8.650;2024-03-22T08:36:35;4.33;;;3.00;;
7475;SDS011;3779;49.216;8.650;2024-03-22T08:39:21;4.73;;;4.10;;
7475;SDS011;3779;49.216;8.650;2024-03-22T08:42:07;7.07;;;5.13;;
7475;SDS011;3779;49.216;8.650;2024-03-22T08:44:54;4.27;;;3.87;;
7475;SDS011;3779;49.216;8.650;2024-03-22T08:53:35;5.57;;;4.43;;
7475;SDS011;3779;49.216;8.650;2024-03-22T08:56:21;4.03;;;3.73;;
7475;SDS011;3779;49.216;8.650;2024-03-22T08:59:07;5.00;;;4.50;;
7475;SDS011;3779;49.216;8.650;2024-03-22T09:01:53;5.47;;;4.87;;
7475;SDS011;3779;49.216;8.650;2024-03-22T09:04:39;3.80;;;3.50;;
7475;SDS011;3779;49.216;8.650;2024-03-22T09:13:16;5.33;;;4.70;;
7475;SDS011;3779;49.216;8.650;2024-03-22T09:16:02;6.13;;;3.78;;
7475;SDS011;3779;49.216;8.650;2024-03-22T09:18:48;5.53;;;4.40;;
7475;SDS011;3779;49.216;8.650;2024-03-22T09:21:34;7.83;;;4.50;;
7475;SDS011;3779;49.216;8.650;2024-03-22T09:24:20;4.43;;;4.03;;
7475;SDS011;3779;49.216;8.650;2024-03-22T09:27:05;3.20;;;2.90;;
7475;SDS011;3779;49.216;8.650;2024-03-22T09:29:53;7.43;;;4.80;;
7475;SDS011;3779;49.216;8.650;2024-03-22T09:32:39;4.90;;;4.40;;
7475;SDS011;3779;49.216;8.650;2024-03-22T09:35:25;5.20;;;4.10;;
7475;SDS011;3779;49.216;8.650;2024-03-22T09:44:34;4.73;;;3.93;;
7475;SDS011;3779;49.216;8.650;2024-03-22T09:47:13;3.17;;;2.87;;
7475;SDS011;3779;49.216;8.650;2024-03-22T09:52:56;3.77;;;2.70;;
7475;SDS011;3779;49.216;8.650;2024-03-22T09:58:29;2.17;;;2.00;;
7475;SDS011;3779;49.216;8.650;2024-03-22T10:01:15;4.23;;;3.20;;
7475;SDS011;3779;49.216;8.650;2024-03-22T10:04:01;4.10;;;3.28;;
7475;SDS011;3779;49.216;8.650;2024-03-22T10:06:47;2.50;;;2.30;;
7475;SDS011;3779;49.216;8.650;2024-03-22T10:09:33;3.37;;;2.87;;
7475;SDS011;3779;49.216;8.650;2024-03-22T10:12:19;5.50;;;3.57;;
7475;SDS011;3779;49.216;8.650;2024-03-22T10:15:05;5.60;;;4.30;;
7475;SDS011;3779;49.216;8.650;2024-03-22T10:17:56;5.60;;;3.97;;
7475;SDS011;3779;49.216;8.650;2024-03-22T10:20:42;3.00;;;2.70;;
7475;SDS011;3779;49.216;8.650;2024-03-22T10:23:28;5.37;;;3.53;;
7475;SDS011;3779;49.216;8.650;2024-03-22T10:26:15;2.90;;;2.50;;
7475;SDS011;3779;49.216;8.650;2024-03-22T10:29:03;2.57;;;2.37;;
7475;SDS011;3779;49.216;8.650;2024-03-22T10:31:51;5.70;;;4.40;;
7475;SDS011;3779;49.216;8.650;2024-03-22T10:34:38;1.83;;;1.70;;
7475;SDS011;3779;49.216;8.650;2024-03-22T10:37:26;3.23;;;2.77;;
7475;SDS011;3779;49.216;8.650;2024-03-22T10:40:12;2.10;;;1.90;;
7475;SDS011;3779;49.216;8.650;2024-03-22T10:42:59;8.60;;;4.07;;
7475;SDS011;3779;49.216;8.650;2024-03-22T10:45:45;4.67;;;4.27;;
7475;SDS011;3779;49.216;8.650;2024-03-22T10:48:36;4.43;;;3.80;;
7475;SDS011;3779;49.216;8.650;2024-03-22T10:51:23;5.50;;;4.20;;
7475;SDS011;3779;49.216;8.650;2024-03-22T10:54:11;4.80;;;4.03;;
7475;SDS011;3779;49.216;8.650;2024-03-22T10:57:04;4.80;;;4.10;;
7475;SDS011;3779;49.216;8.650;2024-03-22T10:59:54;3.40;;;2.97;;
7475;SDS011;3779;49.216;8.650;2024-03-22T11:02:42;2.55;;;2.35;;
7475;SDS011;3779;49.216;8.650;2024-03-22T11:05:29;1.77;;;1.60;;
7475;SDS011;3779;49.216;8.650;2024-03-22T11:08:25;4.75;;;3.28;;
7475;SDS011;3779;49.216;8.650;2024-03-22T11:11:14;3.75;;;3.08;;
7475;SDS011;3779;49.216;8.650;2024-03-22T11:14:04;5.40;;;3.87;;
7475;SDS011;3779;49.216;8.650;2024-03-22T11:16:50;2.57;;;2.00;;
7475;SDS011;3779;49.216;8.650;2024-03-22T11:19:36;3.43;;;2.23;;
7475;SDS011;3779;49.216;8.650;2024-03-22T11:22:25;4.40;;;3.30;;
7475;SDS011;3779;49.216;8.650;2024-03-22T11:25:11;5.43;;;3.23;;
7475;SDS011;3779;49.216;8.650;2024-03-22T11:27:57;5.33;;;3.43;;
7475;SDS011;3779;49.216;8.650;2024-03-22T11:30:43;2.97;;;2.50;;
7475;SDS011;3779;49.216;8.650;2024-03-22T11:33:29;3.20;;;2.90;;
7475;SDS011;3779;49.216;8.650;2024-03-22T11:36:15;3.77;;;2.83;;
7475;SDS011;3779;49.216;8.650;2024-03-22T11:39:05;2.30;;;2.10;;
7475;SDS011;3779;49.216;8.650;2024-03-22T11:41:51;5.80;;;3.40;;
7475;SDS011;3779;49.216;8.650;2024-03-22T11:44:37;2.50;;;2.30;;
7475;SDS011;3779;49.216;8.650;2024-03-22T11:47:24;1.90;;;1.80;;
7475;SDS011;3779;49.216;8.650;2024-03-22T11:50:14;5.35;;;3.22;;
7475;SDS011;3779;49.216;8.650;2024-03-22T11:53:01;5.95;;;3.70;;
7475;SDS011;3779;49.216;8.650;2024-03-22T12:01:26;2.65;;;2.00;;
7475;SDS011;3779;49.216;8.650;2024-03-22T12:04:12;1.80;;;1.67;;
7475;SDS011;3779;49.216;8.650;2024-03-22T12:09:57;2.53;;;2.13;;
7475;SDS011;3779;49.216;8.650;2024-03-22T17:24:17;3.87;;;2.50;;
7475;SDS011;3779;49.216;8.650;2024-03-22T17:36:18;4.60;;;3.20;;
7475;SDS011;3779;49.216;8.650;2024-03-22T17:39:04;4.15;;;2.78;;
7475;SDS011;3779;49.216;8.650;2024-03-22T17:41:50;5.95;;;3.28;;
7475;SDS011;3779;49.216;8.650;2024-03-22T17:44:35;4.70;;;3.00;;
7475;SDS011;3779;49.216;8.650;2024-03-22T17:50:47;3.37;;;2.73;;
7475;SDS011;3779;49.216;8.650;2024-03-22T17:53:32;4.03;;;2.80;;
7475;SDS011;3779;49.216;8.650;2024-03-22T17:56:19;3.50;;;2.40;;
7475;SDS011;3779;49.216;8.650;2024-03-22T17:59:05;4.43;;;2.27;;
7475;SDS011;3779;49.216;8.650;2024-03-22T18:01:52;3.00;;;2.30;;
7475;SDS011;3779;49.216;8.650;2024-03-22T18:04:41;3.90;;;2.70;;
7475;SDS011;3779;49.216;8.650;2024-03-22T18:07:30;2.67;;;2.43;;
7475;SDS011;3779;49.216;8.650;2024-03-22T18:13:17;4.30;;;3.03;;
7475;SDS011;3779;49.216;8.650;2024-03-22T18:19:02;5.40;;;2.97;;
